Terminal Aerodrome Forecast
Issued by NWS Shreveport, LA

Home | Current Version | Previous Version | Text Only | Print | Product List | Glossary On
Versions: 1 2 3 4 5 6 7 8 9 10 11 12 13 14 15 16 17 18 19 20 21 22 23 24 25 26 27 28 29 30
000
FTUS44 KSHV 250314 AAB
TAFELD
TAF AMD
KELD 250314Z 2503/2524 23004KT 6SM -RA BR FEW045 BKN090 OVC110
     FM250400 30006KT P6SM BKN025 BKN070 OVC200
     FM250900 35005KT P6SM BKN200
     FM251500 07007KT P6SM BKN200=

USA.gov is the U.S. government's official web portal to all federal, state and local government web resources and services.